Anna — D5LB6 — position and weather

sailwx.info

Track history (hours):
 
Tides and Currents Weather Stations Pressure Air Temp Water Temp Dewpoint Dewpoint Depression Visibility Wind Speed Wind Dir Waves Ship Positions

Anna

Last reported at 2018-Aug-05 21:25 UTC. Time now 2018-Aug-14 19:28 UTC.
Position N 38°50' E 121°47'.
Warning: this ship's position is 8 days out of date.

Length 189 m; draft 5.8 m.

Type: Cargo ship. MMSI: 636017462.

Date/timePositionNaut miles runAvg speedWind from/ knotsBaromVisibWave heightAir tempDewpointWater temp
2018-Aug-05 21:25N 38°50' E 121°47'410.6
2018-Aug-05 21:00N 38°46' E 121°47'611.9
2018-Aug-05 20:30N 38°40' E 121°47'23 5.9
2018-Aug-05 16:41N 38°28' E 121°23'213.0
2018-Aug-05 16:30N 38°27' E 121°20'613.1
2018-Aug-05 16:00N 38°27' E 121°12'713.7
2018-Aug-05 15:30N 38°30' E 121°04'714.1
2018-Aug-05 15:01N 38°33' E 120°56'713.3
2018-Aug-05 14:29N 38°37' E 120°49'  
2018-Jul-30 16:07N 37°54' E 122°45'110.2
2018-Jul-30 16:00N 37°54' E 122°46'710.6
2018-Jul-30 15:18N 37°48' E 122°52'410.7
2018-Jul-30 14:57N 37°46' E 122°56'611.4
2018-Jul-30 14:27N 37°43' E 123°03'  
Track history (hours):
 
Tides and Currents Weather Stations Pressure Air Temp Water Temp Dewpoint Dewpoint Depression Visibility Wind Speed Wind Dir Waves Ship Positions

Anna

Last reported at 2018-Aug-05 21:25 UTC. Time now 2018-Aug-14 19:28 UTC.
Position N 38°50' E 121°47'.
Warning: this ship's position is 8 days out of date.

Length 189 m; draft 5.8 m.

Type: Cargo ship. MMSI: 636017462.

Date/timePositionNaut miles runAvg speedWind from/ knotsBaromVisibWave heightAir tempDewpointWater temp
2018-Aug-05 21:25N 38°50' E 121°47'410.6
2018-Aug-05 21:00N 38°46' E 121°47'611.9
2018-Aug-05 20:30N 38°40' E 121°47'23 5.9
2018-Aug-05 16:41N 38°28' E 121°23'213.0
2018-Aug-05 16:30N 38°27' E 121°20'613.1
2018-Aug-05 16:00N 38°27' E 121°12'713.7
2018-Aug-05 15:30N 38°30' E 121°04'714.1
2018-Aug-05 15:01N 38°33' E 120°56'713.3
2018-Aug-05 14:29N 38°37' E 120°49'  
2018-Jul-30 16:07N 37°54' E 122°45'110.2
2018-Jul-30 16:00N 37°54' E 122°46'710.6
2018-Jul-30 15:18N 37°48' E 122°52'410.7
2018-Jul-30 14:57N 37°46' E 122°56'611.4
2018-Jul-30 14:27N 37°43' E 123°03'  

Dump ship's entire track history